sensor_id;sensor_type;location;lat;lon;timestamp;pressure;altitude;pressure_sealevel;temperature;humidity
85159;BME280;75525;50.718;10.600;2024-03-08T00:00:27;96134.41;;;-2.55;86.30
85159;BME280;75525;50.718;10.600;2024-03-08T00:01:28;96133.38;;;-2.54;86.17
85159;BME280;75525;50.718;10.600;2024-03-08T00:02:28;96119.16;;;-2.61;86.28
85159;BME280;75525;50.718;10.600;2024-03-08T00:03:29;96124.47;;;-2.61;86.63
85159;BME280;75525;50.718;10.600;2024-03-08T00:04:31;96106.25;;;-2.64;86.78
85159;BME280;75525;50.718;10.600;2024-03-08T00:05:31;96128.09;;;-2.54;87.05
85159;BME280;75525;50.718;10.600;2024-03-08T00:06:32;96126.91;;;-2.52;87.09
85159;BME280;75525;50.718;10.600;2024-03-08T00:07:32;96125.09;;;-2.51;86.82
85159;BME280;75525;50.718;10.600;2024-03-08T00:08:33;96116.66;;;-2.55;87.11
85159;BME280;75525;50.718;10.600;2024-03-08T00:09:33;96107.22;;;-2.57;86.94
85159;BME280;75525;50.718;10.600;2024-03-08T00:10:34;96125.09;;;-2.51;87.26
85159;BME280;75525;50.718;10.600;2024-03-08T00:11:34;96118.13;;;-2.52;86.92
85159;BME280;75525;50.718;10.600;2024-03-08T00:12:35;96106.09;;;-2.63;87.17
85159;BME280;75525;50.718;10.600;2024-03-08T00:13:35;96115.47;;;-2.52;87.50
85159;BME280;75525;50.718;10.600;2024-03-08T00:14:36;96115.59;;;-2.45;87.42
85159;BME280;75525;50.718;10.600;2024-03-08T00:15:37;96111.78;;;-2.43;86.72
85159;BME280;75525;50.718;10.600;2024-03-08T00:16:38;96112.63;;;-2.42;86.70
85159;BME280;75525;50.718;10.600;2024-03-08T00:17:38;96116.56;;;-2.38;86.51
85159;BME280;75525;50.718;10.600;2024-03-08T00:18:39;96112.09;;;-2.38;86.82
85159;BME280;75525;50.718;10.600;2024-03-08T00:19:39;96114.56;;;-2.36;86.77
85159;BME280;75525;50.718;10.600;2024-03-08T00:20:41;96110.06;;;-2.36;87.15
85159;BME280;75525;50.718;10.600;2024-03-08T00:21:42;96104.78;;;-2.36;87.07
85159;BME280;75525;50.718;10.600;2024-03-08T00:22:42;96107.41;;;-2.36;87.19
85159;BME280;75525;50.718;10.600;2024-03-08T00:23:43;96103.47;;;-2.40;87.25
85159;BME280;75525;50.718;10.600;2024-03-08T00:24:44;96094.88;;;-2.42;87.00
85159;BME280;75525;50.718;10.600;2024-03-08T00:25:44;96114.69;;;-2.30;86.85
85159;BME280;75525;50.718;10.600;2024-03-08T00:26:44;96109.03;;;-2.27;86.46
85159;BME280;75525;50.718;10.600;2024-03-08T00:27:45;96102.19;;;-2.21;85.95
85159;BME280;75525;50.718;10.600;2024-03-08T00:28:45;96088.66;;;-2.26;85.82
85159;BME280;75525;50.718;10.600;2024-03-08T00:29:47;96110.91;;;-2.12;85.65
85159;BME280;75525;50.718;10.600;2024-03-08T00:30:47;96101.59;;;-2.08;85.71
85159;BME280;75525;50.718;10.600;2024-03-08T00:31:48;96106.56;;;-2.05;85.54
85159;BME280;75525;50.718;10.600;2024-03-08T00:32:48;96102.09;;;-2.05;85.46
85159;BME280;75525;50.718;10.600;2024-03-08T00:33:49;96102.91;;;-2.04;85.48
85159;BME280;75525;50.718;10.600;2024-03-08T00:34:49;96093.94;;;-2.03;85.24
85159;BME280;75525;50.718;10.600;2024-03-08T00:35:52;96098.25;;;-2.02;85.51
85159;BME280;75525;50.718;10.600;2024-03-08T00:36:52;96102.91;;;-2.04;85.74
85159;BME280;75525;50.718;10.600;2024-03-08T00:37:53;96093.94;;;-2.03;85.44
85159;BME280;75525;50.718;10.600;2024-03-08T00:38:56;96087.66;;;-2.02;85.14
85159;BME280;75525;50.718;10.600;2024-03-08T00:39:57;96092.97;;;-2.02;85.31
85159;BME280;75525;50.718;10.600;2024-03-08T00:40:57;96086.81;;;-2.03;85.03
85159;BME280;75525;50.718;10.600;2024-03-08T00:41:57;96082.34;;;-2.02;84.94
85159;BME280;75525;50.718;10.600;2024-03-08T00:42:58;96082.50;;;-2.04;85.02
85159;BME280;75525;50.718;10.600;2024-03-08T00:43:58;96072.97;;;-2.13;84.92
85159;BME280;75525;50.718;10.600;2024-03-08T00:44:59;96084.34;;;-2.04;84.77
85159;BME280;75525;50.718;10.600;2024-03-08T00:45:59;96079.69;;;-2.02;84.75
85159;BME280;75525;50.718;10.600;2024-03-08T00:47:01;96088.47;;;-2.02;85.07
85159;BME280;75525;50.718;10.600;2024-03-08T00:48:04;96079.69;;;-2.02;84.79
85159;BME280;75525;50.718;10.600;2024-03-08T00:49:05;96077.69;;;-2.00;84.63
85159;BME280;75525;50.718;10.600;2024-03-08T00:50:07;96070.59;;;-2.08;84.85
85159;BME280;75525;50.718;10.600;2024-03-08T00:51:08;96060.19;;;-2.09;84.82
85159;BME280;75525;50.718;10.600;2024-03-08T00:52:08;96057.06;;;-2.13;85.01
85159;BME280;75525;50.718;10.600;2024-03-08T00:53:09;96073.53;;;-2.03;85.13
85159;BME280;75525;50.718;10.600;2024-03-08T00:54:11;96059.84;;;-2.06;85.00
85159;BME280;75525;50.718;10.600;2024-03-08T00:55:12;96070.38;;;-1.98;84.97
85159;BME280;75525;50.718;10.600;2024-03-08T00:56:12;96054.69;;;-2.08;84.96
85159;BME280;75525;50.718;10.600;2024-03-08T00:57:12;96062.50;;;-2.06;84.57
85159;BME280;75525;50.718;10.600;2024-03-08T00:58:13;96079.97;;;-1.97;84.86
85159;BME280;75525;50.718;10.600;2024-03-08T00:59:13;96071.19;;;-1.97;84.72
85159;BME280;75525;50.718;10.600;2024-03-08T01:00:16;96060.13;;;-2.01;84.89
85159;BME280;75525;50.718;10.600;2024-03-08T01:01:19;96072.03;;;-1.97;84.37
85159;BME280;75525;50.718;10.600;2024-03-08T01:02:19;96072.03;;;-1.97;84.35
85159;BME280;75525;50.718;10.600;2024-03-08T01:03:21;96070.38;;;-1.98;84.33
85159;BME280;75525;50.718;10.600;2024-03-08T01:04:21;96053.53;;;-2.05;84.50
85159;BME280;75525;50.718;10.600;2024-03-08T01:05:23;96055.91;;;-2.10;84.16
85159;BME280;75525;50.718;10.600;2024-03-08T01:06:24;96067.41;;;-2.03;84.10
85159;BME280;75525;50.718;10.600;2024-03-08T01:07:25;96059.38;;;-2.10;84.64
85159;BME280;75525;50.718;10.600;2024-03-08T01:08:25;96068.22;;;-2.03;84.62
85159;BME280;75525;50.718;10.600;2024-03-08T01:09:26;96064.75;;;-2.03;84.85
85159;BME280;75525;50.718;10.600;2024-03-08T01:10:27;96044.81;;;-2.14;84.40
85159;BME280;75525;50.718;10.600;2024-03-08T01:11:27;96053.75;;;-2.15;84.59
85159;BME280;75525;50.718;10.600;2024-03-08T01:12:28;96056.25;;;-2.13;84.74
85159;BME280;75525;50.718;10.600;2024-03-08T01:13:29;96062.03;;;-2.10;85.11
85159;BME280;75525;50.718;10.600;2024-03-08T01:14:30;96062.03;;;-2.10;84.86
85159;BME280;75525;50.718;10.600;2024-03-08T01:15:31;96061.19;;;-2.10;84.68
85159;BME280;75525;50.718;10.600;2024-03-08T01:16:31;96059.53;;;-2.11;85.24
85159;BME280;75525;50.718;10.600;2024-03-08T01:17:33;96061.53;;;-2.13;85.01
85159;BME280;75525;50.718;10.600;2024-03-08T01:18:33;96043.41;;;-2.25;84.83
85159;BME280;75525;50.718;10.600;2024-03-08T01:19:34;96044.69;;;-2.20;85.13
85159;BME280;75525;50.718;10.600;2024-03-08T01:20:34;96050.47;;;-2.17;85.46
85159;BME280;75525;50.718;10.600;2024-03-08T01:21:35;96052.28;;;-2.17;84.73
85159;BME280;75525;50.718;10.600;2024-03-08T01:22:35;96036.44;;;-2.26;84.56
85159;BME280;75525;50.718;10.600;2024-03-08T01:23:36;96030.00;;;-2.31;84.74
85159;BME280;75525;50.718;10.600;2024-03-08T01:24:36;96042.38;;;-2.24;84.96
85159;BME280;75525;50.718;10.600;2024-03-08T01:25:37;96031.16;;;-2.26;84.72
85159;BME280;75525;50.718;10.600;2024-03-08T01:26:37;96044.56;;;-2.27;85.27
85159;BME280;75525;50.718;10.600;2024-03-08T01:27:38;96043.94;;;-2.29;85.70
85159;BME280;75525;50.718;10.600;2024-03-08T01:28:39;96028.38;;;-2.32;85.75
85159;BME280;75525;50.718;10.600;2024-03-08T01:29:39;96025.38;;;-2.29;85.46
85159;BME280;75525;50.718;10.600;2024-03-08T01:30:40;96013.72;;;-2.43;85.09
85159;BME280;75525;50.718;10.600;2024-03-08T01:31:42;96025.25;;;-2.36;84.88
85159;BME280;75525;50.718;10.600;2024-03-08T01:32:43;96023.94;;;-2.40;85.06
85159;BME280;75525;50.718;10.600;2024-03-08T01:33:44;96029.91;;;-2.38;85.38
85159;BME280;75525;50.718;10.600;2024-03-08T01:34:44;96032.56;;;-2.38;85.26
85159;BME280;75525;50.718;10.600;2024-03-08T01:35:45;96030.06;;;-2.39;85.52
85159;BME280;75525;50.718;10.600;2024-03-08T01:36:45;96026.59;;;-2.40;85.43
85159;BME280;75525;50.718;10.600;2024-03-08T01:37:46;96026.78;;;-2.41;85.86
85159;BME280;75525;50.718;10.600;2024-03-08T01:38:46;96029.63;;;-2.43;85.54
85159;BME280;75525;50.718;10.600;2024-03-08T01:39:47;96021.38;;;-2.48;85.74
85159;BME280;75525;50.718;10.600;2024-03-08T01:40:48;96009.47;;;-2.52;85.71
85159;BME280;75525;50.718;10.600;2024-03-08T01:41:48;96023.66;;;-2.45;85.90
85159;BME280;75525;50.718;10.600;2024-03-08T01:42:49;96014.13;;;-2.54;85.29
85159;BME280;75525;50.718;10.600;2024-03-08T01:43:49;96028.69;;;-2.50;86.30
85159;BME280;75525;50.718;10.600;2024-03-08T01:44:50;96024.72;;;-2.54;86.04
85159;BME280;75525;50.718;10.600;2024-03-08T01:45:51;96008.88;;;-2.62;86.14
85159;BME280;75525;50.718;10.600;2024-03-08T01:46:53;96020.78;;;-2.58;86.23
85159;BME280;75525;50.718;10.600;2024-03-08T01:47:53;96014.19;;;-2.62;86.22
85159;BME280;75525;50.718;10.600;2024-03-08T01:48:54;96001.34;;;-2.74;86.01
85159;BME280;75525;50.718;10.600;2024-03-08T01:49:55;96024.78;;;-2.62;86.02
85159;BME280;75525;50.718;10.600;2024-03-08T01:50:57;96016.16;;;-2.64;86.41
85159;BME280;75525;50.718;10.600;2024-03-08T01:51:57;95998.69;;;-2.74;86.55
85159;BME280;75525;50.718;10.600;2024-03-08T01:52:58;96010.41;;;-2.68;86.46
85159;BME280;75525;50.718;10.600;2024-03-08T01:54:01;96016.53;;;-2.67;85.93
85159;BME280;75525;50.718;10.600;2024-03-08T01:55:04;96007.94;;;-2.69;86.46
85159;BME280;75525;50.718;10.600;2024-03-08T01:56:07;96014.41;;;-2.72;85.93
85159;BME280;75525;50.718;10.600;2024-03-08T01:57:09;96008.28;;;-2.72;86.73
85159;BME280;75525;50.718;10.600;2024-03-08T01:58:10;96001.69;;;-2.77;86.37
85159;BME280;75525;50.718;10.600;2024-03-08T01:59:12;95986.03;;;-2.86;86.31
85159;BME280;75525;50.718;10.600;2024-03-08T02:00:14;96008.00;;;-2.78;86.47
85159;BME280;75525;50.718;10.600;2024-03-08T02:01:16;96002.03;;;-2.80;86.93
85159;BME280;75525;50.718;10.600;2024-03-08T02:02:19;95995.31;;;-2.90;86.56
85159;BME280;75525;50.718;10.600;2024-03-08T02:03:20;96004.88;;;-2.81;87.04
85159;BME280;75525;50.718;10.600;2024-03-08T02:04:21;96004.38;;;-2.85;86.96
85159;BME280;75525;50.718;10.600;2024-03-08T02:05:22;95998.25;;;-2.85;87.09
85159;BME280;75525;50.718;10.600;2024-03-08T02:06:23;95992.53;;;-2.97;86.81
85159;BME280;75525;50.718;10.600;2024-03-08T02:07:24;96001.91;;;-2.86;87.08
85159;BME280;75525;50.718;10.600;2024-03-08T02:08:24;95989.88;;;-2.97;86.97
85159;BME280;75525;50.718;10.600;2024-03-08T02:09:25;95987.78;;;-3.02;86.78
85159;BME280;75525;50.718;10.600;2024-03-08T02:10:25;95998.66;;;-2.96;87.24
85159;BME280;75525;50.718;10.600;2024-03-08T02:11:26;95999.47;;;-2.96;87.32
85159;BME280;75525;50.718;10.600;2024-03-08T02:12:27;95996.81;;;-2.96;87.62
85159;BME280;75525;50.718;10.600;2024-03-08T02:13:27;95994.56;;;-2.99;87.78
85159;BME280;75525;50.718;10.600;2024-03-08T02:14:28;95991.91;;;-2.99;87.61
85159;BME280;75525;50.718;10.600;2024-03-08T02:16:51;95978.34;;;-3.04;87.55
85159;BME280;75525;50.718;10.600;2024-03-08T02:17:51;95979.53;;;-3.07;87.75
85159;BME280;75525;50.718;10.600;2024-03-08T02:18:53;95986.47;;;-3.06;87.42
85159;BME280;75525;50.718;10.600;2024-03-08T02:19:53;95982.66;;;-3.03;88.63
85159;BME280;75525;50.718;10.600;2024-03-08T02:21:04;95983.63;;;-3.04;88.04
85159;BME280;75525;50.718;10.600;2024-03-08T02:22:05;95980.34;;;-3.06;87.68
85159;BME280;75525;50.718;10.600;2024-03-08T02:23:06;95982.00;;;-3.05;87.44
85159;BME280;75525;50.718;10.600;2024-03-08T02:24:07;95987.97;;;-3.03;87.27
85159;BME280;75525;50.718;10.600;2024-03-08T02:25:08;95985.31;;;-3.03;87.52
85159;BME280;75525;50.718;10.600;2024-03-08T02:26:09;95981.34;;;-3.07;87.46
85159;BME280;75525;50.718;10.600;2024-03-08T02:27:09;95977.91;;;-3.08;87.99
85159;BME280;75525;50.718;10.600;2024-03-08T02:28:12;95971.97;;;-3.18;88.21
85159;BME280;75525;50.718;10.600;2024-03-08T02:29:14;95975.75;;;-3.12;88.19
85159;BME280;75525;50.718;10.600;2024-03-08T02:30:15;95976.94;;;-3.15;88.14
85159;BME280;75525;50.718;10.600;2024-03-08T02:31:17;95979.72;;;-3.16;87.81
85159;BME280;75525;50.718;10.600;2024-03-08T02:32:18;95970.66;;;-3.22;87.66
85159;BME280;75525;50.718;10.600;2024-03-08T02:33:18;95979.72;;;-3.16;87.89
85159;BME280;75525;50.718;10.600;2024-03-08T02:34:19;95962.25;;;-3.26;87.46
85159;BME280;75525;50.718;10.600;2024-03-08T02:35:20;95977.75;;;-3.14;87.67
85159;BME280;75525;50.718;10.600;2024-03-08T02:36:20;95979.56;;;-3.15;87.91
85159;BME280;75525;50.718;10.600;2024-03-08T02:37:21;95974.91;;;-3.13;87.78
85159;BME280;75525;50.718;10.600;2024-03-08T02:38:23;95976.09;;;-3.15;87.76
85159;BME280;75525;50.718;10.600;2024-03-08T02:39:24;95978.75;;;-3.15;87.60
85159;BME280;75525;50.718;10.600;2024-03-08T02:40:24;95975.63;;;-3.19;88.31
85159;BME280;75525;50.718;10.600;2024-03-08T02:41:25;95963.25;;;-3.27;88.31
85159;BME280;75525;50.718;10.600;2024-03-08T02:42:25;95961.91;;;-3.22;88.02
85159;BME280;75525;50.718;10.600;2024-03-08T02:43:26;95968.84;;;-3.21;88.48
85159;BME280;75525;50.718;10.600;2024-03-08T02:44:26;95971.69;;;-3.23;88.05
85159;BME280;75525;50.718;10.600;2024-03-08T02:45:27;95948.44;;;-3.36;88.26
85159;BME280;75525;50.718;10.600;2024-03-08T02:46:28;95962.09;;;-3.24;88.83
85159;BME280;75525;50.718;10.600;2024-03-08T02:47:30;95970.19;;;-3.26;88.83
85159;BME280;75525;50.718;10.600;2024-03-08T02:48:31;95956.66;;;-3.31;88.46
85159;BME280;75525;50.718;10.600;2024-03-08T02:49:32;95952.41;;;-3.40;88.42
85159;BME280;75525;50.718;10.600;2024-03-08T02:50:32;95957.34;;;-3.37;88.76
85159;BME280;75525;50.718;10.600;2024-03-08T02:51:34;95961.97;;;-3.31;88.56
85159;BME280;75525;50.718;10.600;2024-03-08T02:52:36;95961.97;;;-3.31;88.72
85159;BME280;75525;50.718;10.600;2024-03-08T02:53:36;95949.25;;;-3.35;88.94
85159;BME280;75525;50.718;10.600;2024-03-08T02:54:37;95957.66;;;-3.32;89.02
85159;BME280;75525;50.718;10.600;2024-03-08T02:55:39;95946.28;;;-3.40;89.00
85159;BME280;75525;50.718;10.600;2024-03-08T02:56:41;95955.03;;;-3.32;88.63
85159;BME280;75525;50.718;10.600;2024-03-08T02:57:42;95956.81;;;-3.32;88.35
85159;BME280;75525;50.718;10.600;2024-03-08T02:58:43;95951.38;;;-3.31;89.13
85159;BME280;75525;50.718;10.600;2024-03-08T02:59:48;95925.00;;;-3.47;89.25
85159;BME280;75525;50.718;10.600;2024-03-08T03:00:49;95943.00;;;-3.42;89.04
85159;BME280;75525;50.718;10.600;2024-03-08T03:01:49;95940.16;;;-3.41;88.80
85159;BME280;75525;50.718;10.600;2024-03-08T03:02:51;95958.63;;;-3.33;88.48
85159;BME280;75525;50.718;10.600;2024-03-08T03:03:54;95933.41;;;-3.43;88.82
85159;BME280;75525;50.718;10.600;2024-03-08T03:04:54;95958.63;;;-3.33;88.78
85159;BME280;75525;50.718;10.600;2024-03-08T03:05:56;95949.72;;;-3.32;88.69
85159;BME280;75525;50.718;10.600;2024-03-08T03:06:56;95948.88;;;-3.32;88.85
85159;BME280;75525;50.718;10.600;2024-03-08T03:07:56;95949.72;;;-3.32;88.72
85159;BME280;75525;50.718;10.600;2024-03-08T03:08:58;95935.34;;;-3.37;88.95
85159;BME280;75525;50.718;10.600;2024-03-08T03:09:59;95945.78;;;-3.36;89.02
85159;BME280;75525;50.718;10.600;2024-03-08T03:11:03;95941.47;;;-3.37;88.57
85159;BME280;75525;50.718;10.600;2024-03-08T03:12:03;95938.03;;;-3.45;88.30
85159;BME280;75525;50.718;10.600;2024-03-08T03:13:04;95926.16;;;-3.50;89.46
85159;BME280;75525;50.718;10.600;2024-03-08T03:14:05;95941.81;;;-3.40;89.25
85159;BME280;75525;50.718;10.600;2024-03-08T03:15:10;95943.47;;;-3.39;89.52
85159;BME280;75525;50.718;10.600;2024-03-08T03:16:16;95939.81;;;-3.38;89.35
85159;BME280;75525;50.718;10.600;2024-03-08T03:17:17;95938.81;;;-3.37;88.79
85159;BME280;75525;50.718;10.600;2024-03-08T03:18:17;95920.03;;;-3.50;89.14
85159;BME280;75525;50.718;10.600;2024-03-08T03:19:21;95937.50;;;-3.41;88.59
85159;BME280;75525;50.718;10.600;2024-03-08T03:20:21;95926.97;;;-3.49;88.62
85159;BME280;75525;50.718;10.600;2024-03-08T03:21:32;95928.78;;;-3.50;88.54
85159;BME280;75525;50.718;10.600;2024-03-08T03:22:39;95928.28;;;-3.45;88.76
85159;BME280;75525;50.718;10.600;2024-03-08T03:23:41;95940.88;;;-3.47;88.98
85159;BME280;75525;50.718;10.600;2024-03-08T03:24:42;95935.91;;;-3.50;89.11
85159;BME280;75525;50.718;10.600;2024-03-08T03:25:43;95935.31;;;-3.60;88.63
85159;BME280;75525;50.718;10.600;2024-03-08T03:26:43;95943.53;;;-3.55;89.22
85159;BME280;75525;50.718;10.600;2024-03-08T03:27:43;95941.91;;;-3.56;89.05
85159;BME280;75525;50.718;10.600;2024-03-08T03:28:46;95940.06;;;-3.56;89.22
85159;BME280;75525;50.718;10.600;2024-03-08T03:29:47;95939.25;;;-3.56;88.99
85159;BME280;75525;50.718;10.600;2024-03-08T03:30:47;95938.41;;;-3.57;88.85
85159;BME280;75525;50.718;10.600;2024-03-08T03:31:47;95937.28;;;-3.62;89.28
85159;BME280;75525;50.718;10.600;2024-03-08T03:32:49;95937.28;;;-3.62;88.84
85159;BME280;75525;50.718;10.600;2024-03-08T03:33:51;95939.75;;;-3.61;89.48
85159;BME280;75525;50.718;10.600;2024-03-08T03:34:51;95935.47;;;-3.62;89.41
85159;BME280;75525;50.718;10.600;2024-03-08T03:35:53;95936.13;;;-3.60;89.63
85159;BME280;75525;50.718;10.600;2024-03-08T03:36:53;95930.47;;;-3.57;89.95
85159;BME280;75525;50.718;10.600;2024-03-08T03:37:55;95933.47;;;-3.60;89.28
85159;BME280;75525;50.718;10.600;2024-03-08T03:39:08;95930.34;;;-3.63;88.92
85159;BME280;75525;50.718;10.600;2024-03-08T03:40:20;95934.81;;;-3.64;89.20
85159;BME280;75525;50.718;10.600;2024-03-08T03:41:20;95935.16;;;-3.67;89.37
85159;BME280;75525;50.718;10.600;2024-03-08T03:42:21;95925.59;;;-3.68;89.47
85159;BME280;75525;50.718;10.600;2024-03-08T03:43:21;95925.75;;;-3.69;89.95
85159;BME280;75525;50.718;10.600;2024-03-08T03:44:22;95943.91;;;-3.66;89.54
85159;BME280;75525;50.718;10.600;2024-03-08T03:45:24;95926.41;;;-3.67;89.82
85159;BME280;75525;50.718;10.600;2024-03-08T03:46:24;95925.44;;;-3.75;89.77
85159;BME280;75525;50.718;10.600;2024-03-08T03:47:27;95933.34;;;-3.66;89.68
85159;BME280;75525;50.718;10.600;2024-03-08T03:48:27;95931.69;;;-3.67;89.35
85159;BME280;75525;50.718;10.600;2024-03-08T03:49:28;95909.91;;;-3.78;89.90
85159;BME280;75525;50.718;10.600;2024-03-08T03:50:29;95932.69;;;-3.68;89.79
85159;BME280;75525;50.718;10.600;2024-03-08T03:51:29;95910.28;;;-3.81;89.63
85159;BME280;75525;50.718;10.600;2024-03-08T03:52:30;95933.03;;;-3.71;90.24
85159;BME280;75525;50.718;10.600;2024-03-08T03:53:30;95931.53;;;-3.74;90.03
85159;BME280;75525;50.718;10.600;2024-03-08T03:54:31;95928.41;;;-3.78;89.80
85159;BME280;75525;50.718;10.600;2024-03-08T03:55:33;95902.22;;;-3.95;90.07
85159;BME280;75525;50.718;10.600;2024-03-08T03:56:33;95918.88;;;-3.87;90.37
85159;BME280;75525;50.718;10.600;2024-03-08T03:57:34;95930.09;;;-3.77;90.22
85159;BME280;75525;50.718;10.600;2024-03-08T03:58:34;95932.06;;;-3.79;89.92
85159;BME280;75525;50.718;10.600;2024-03-08T03:59:34;95926.44;;;-3.76;90.60
85159;BME280;75525;50.718;10.600;2024-03-08T04:00:35;95930.91;;;-3.76;90.39
85159;BME280;75525;50.718;10.600;2024-03-08T04:01:35;95916.91;;;-3.85;89.65
85159;BME280;75525;50.718;10.600;2024-03-08T04:02:39;95929.41;;;-3.79;89.75
85159;BME280;75525;50.718;10.600;2024-03-08T04:03:41;95929.41;;;-3.79;89.90
85159;BME280;75525;50.718;10.600;2024-03-08T04:04:43;95921.19;;;-3.84;89.28
85159;BME280;75525;50.718;10.600;2024-03-08T04:05:46;95913.63;;;-3.95;89.51
85159;BME280;75525;50.718;10.600;2024-03-08T04:06:46;95925.31;;;-3.89;89.93
85159;BME280;75525;50.718;10.600;2024-03-08T04:07:47;95923.66;;;-3.90;89.77
85159;BME280;75525;50.718;10.600;2024-03-08T04:08:48;95919.53;;;-3.93;89.78
85159;BME280;75525;50.718;10.600;2024-03-08T04:09:48;95925.50;;;-3.91;89.30
85159;BME280;75525;50.718;10.600;2024-03-08T04:10:50;95925.69;;;-3.92;90.35
85159;BME280;75525;50.718;10.600;2024-03-08T04:11:51;95922.19;;;-3.93;89.86
85159;BME280;75525;50.718;10.600;2024-03-08T04:12:53;95923.19;;;-3.94;89.75
85159;BME280;75525;50.718;10.600;2024-03-08T04:13:53;95927.47;;;-3.93;89.98
85159;BME280;75525;50.718;10.600;2024-03-08T04:14:54;95921.53;;;-3.95;90.28
85159;BME280;75525;50.718;10.600;2024-03-08T04:15:55;95923.38;;;-3.95;90.06
85159;BME280;75525;50.718;10.600;2024-03-08T04:16:56;95904.41;;;-4.07;89.89
85159;BME280;75525;50.718;10.600;2024-03-08T04:17:56;95925.19;;;-3.96;89.90
85159;BME280;75525;50.718;10.600;2024-03-08T04:19:00;95918.22;;;-3.97;89.64
85159;BME280;75525;50.718;10.600;2024-03-08T04:20:04;95913.63;;;-4.03;90.25
85159;BME280;75525;50.718;10.600;2024-03-08T04:21:09;95927.47;;;-3.93;90.67
85159;BME280;75525;50.718;10.600;2024-03-08T04:22:10;95925.69;;;-3.92;90.60
85159;BME280;75525;50.718;10.600;2024-03-08T04:23:10;95920.88;;;-3.89;90.50
85159;BME280;75525;50.718;10.600;2024-03-08T04:24:11;95915.59;;;-3.89;90.48
85159;BME280;75525;50.718;10.600;2024-03-08T04:25:11;95911.44;;;-3.91;90.89
85159;BME280;75525;50.718;10.600;2024-03-08T04:26:11;95915.91;;;-3.92;90.45
85159;BME280;75525;50.718;10.600;2024-03-08T04:27:13;95907.84;;;-3.99;90.49
85159;BME280;75525;50.718;10.600;2024-03-08T04:28:16;95915.09;;;-3.92;90.86
85159;BME280;75525;50.718;10.600;2024-03-08T04:29:17;95920.53;;;-3.94;90.63
85159;BME280;75525;50.718;10.600;2024-03-08T04:30:17;95917.91;;;-3.94;90.14
85159;BME280;75525;50.718;10.600;2024-03-08T04:31:18;95916.59;;;-3.98;90.39
85159;BME280;75525;50.718;10.600;2024-03-08T04:32:18;95913.31;;;-4.00;90.35
85159;BME280;75525;50.718;10.600;2024-03-08T04:33:19;95909.84;;;-4.01;90.38
85159;BME280;75525;50.718;10.600;2024-03-08T04:34:21;95910.81;;;-4.02;89.98
85159;BME280;75525;50.718;10.600;2024-03-08T04:35:21;95911.00;;;-4.03;89.64
85159;BME280;75525;50.718;10.600;2024-03-08T04:36:22;95914.47;;;-4.03;90.31
85159;BME280;75525;50.718;10.600;2024-03-08T04:37:22;95910.31;;;-4.05;89.95
85159;BME280;75525;50.718;10.600;2024-03-08T04:38:22;95900.44;;;-4.11;90.46
85159;BME280;75525;50.718;10.600;2024-03-08T04:39:23;95888.91;;;-4.18;90.48
85159;BME280;75525;50.718;10.600;2024-03-08T04:40:24;95905.22;;;-4.07;91.30
85159;BME280;75525;50.718;10.600;2024-03-08T04:41:24;95901.09;;;-4.09;91.00
85159;BME280;75525;50.718;10.600;2024-03-08T04:42:25;95899.44;;;-4.10;90.53
85159;BME280;75525;50.718;10.600;2024-03-08T04:43:27;95908.03;;;-4.08;90.65
85159;BME280;75525;50.718;10.600;2024-03-08T04:44:30;95895.50;;;-4.14;90.81
85159;BME280;75525;50.718;10.600;2024-03-08T04:45:31;95903.72;;;-4.09;90.41
85159;BME280;75525;50.718;10.600;2024-03-08T04:46:32;95889.88;;;-4.11;90.53
85159;BME280;75525;50.718;10.600;2024-03-08T04:47:32;95900.13;;;-4.08;90.14
85159;BME280;75525;50.718;10.600;2024-03-08T04:48:33;95902.09;;;-4.10;91.06
85159;BME280;75525;50.718;10.600;2024-03-08T04:49:33;95901.09;;;-4.09;90.26
85159;BME280;75525;50.718;10.600;2024-03-08T04:50:36;95885.63;;;-4.20;90.56
85159;BME280;75525;50.718;10.600;2024-03-08T04:51:38;95876.53;;;-4.26;90.27
85159;BME280;75525;50.718;10.600;2024-03-08T04:52:38;95904.59;;;-4.17;90.60
85159;BME280;75525;50.718;10.600;2024-03-08T04:53:39;95890.56;;;-4.26;90.27
85159;BME280;75525;50.718;10.600;2024-03-08T04:54:39;95902.28;;;-4.20;90.79
85159;BME280;75525;50.718;10.600;2024-03-08T04:55:40;95878.69;;;-4.30;90.75
85159;BME280;75525;50.718;10.600;2024-03-08T04:56:40;95892.88;;;-4.23;90.48
85159;BME280;75525;50.718;10.600;2024-03-08T04:57:41;95900.47;;;-4.19;90.94
85159;BME280;75525;50.718;10.600;2024-03-08T04:58:46;95891.22;;;-4.24;90.58
85159;BME280;75525;50.718;10.600;2024-03-08T04:59:47;95905.09;;;-4.22;90.56
85159;BME280;75525;50.718;10.600;2024-03-08T05:00:47;95895.22;;;-4.28;90.43
85159;BME280;75525;50.718;10.600;2024-03-08T05:01:48;95897.50;;;-4.25;90.93
85159;BME280;75525;50.718;10.600;2024-03-08T05:02:48;95895.69;;;-4.24;90.77
85159;BME280;75525;50.718;10.600;2024-03-08T05:03:49;95899.81;;;-4.22;91.06
85159;BME280;75525;50.718;10.600;2024-03-08T05:04:50;95897.34;;;-4.23;90.45
85159;BME280;75525;50.718;10.600;2024-03-08T05:05:51;95901.47;;;-4.20;90.76
85159;BME280;75525;50.718;10.600;2024-03-08T05:06:51;95902.44;;;-4.22;91.00
85159;BME280;75525;50.718;10.600;2024-03-08T05:07:52;95875.09;;;-4.37;90.98
85159;BME280;75525;50.718;10.600;2024-03-08T05:08:52;95883.16;;;-4.30;90.72
85159;BME280;75525;50.718;10.600;2024-03-08T05:09:53;95897.81;;;-4.19;91.07
85159;BME280;75525;50.718;10.600;2024-03-08T05:10:54;95877.56;;;-4.35;90.83
85159;BME280;75525;50.718;10.600;2024-03-08T05:11:54;95880.19;;;-4.35;90.09
85159;BME280;75525;50.718;10.600;2024-03-08T05:12:55;95891.91;;;-4.30;90.93
85159;BME280;75525;50.718;10.600;2024-03-08T05:13:55;95895.03;;;-4.34;90.36
85159;BME280;75525;50.718;10.600;2024-03-08T05:14:56;95897.19;;;-4.30;90.24
85159;BME280;75525;50.718;10.600;2024-03-08T05:15:57;95877.38;;;-4.42;90.28
85159;BME280;75525;50.718;10.600;2024-03-08T05:16:58;95893.06;;;-4.32;90.55
85159;BME280;75525;50.718;10.600;2024-03-08T05:18:00;95896.53;;;-4.32;91.31
85159;BME280;75525;50.718;10.600;2024-03-08T05:19:02;95896.53;;;-4.32;91.00
85159;BME280;75525;50.718;10.600;2024-03-08T05:20:02;95892.25;;;-4.33;91.04
85159;BME280;75525;50.718;10.600;2024-03-08T05:21:04;95889.94;;;-4.36;91.14